Time;durP1;ratioP1;P1;durP2;ratioP2;P2;SDS_P1;SDS_P2;PMS_P1;PMS_P2;Temp;Humidity;BMP_temperature;BMP_pressure;BME280_temperature;BME280_humidity;BME280_pressure;Samples;Min_cycle;Max_cycle;Signal;HPM_P1;HPM_P2
2021/09/25 00:01:54;;;;;;;26.38;11.35;;;;;;;14.88;100.00;101453.28;5082412;28;20097;-67
2021/09/25 00:04:20;;;;;;;26.55;11.07;;;;;;;14.87;100.00;101461.25;5085744;28;20040;-66
2021/09/25 00:06:45;;;;;;;26.55;11.40;;;;;;;14.83;100.00;101460.38;5064658;28;20033;-65
2021/09/25 00:09:10;;;;;;;25.30;10.70;;;;;;;14.85;100.00;101460.38;5084391;28;20127;-66
2021/09/25 00:11:36;;;;;;;25.55;10.63;;;;;;;14.81;100.00;101462.19;5083555;28;20023;-66
2021/09/25 00:14:01;;;;;;;27.08;10.82;;;;;;;14.82;100.00;101453.28;5083033;28;20077;-64
2021/09/25 00:16:26;;;;;;;25.77;10.75;;;;;;;14.82;100.00;101445.28;5084771;28;20016;-64
2021/09/25 00:18:56;;;;;;;25.67;10.77;;;;;;;14.81;100.00;101446.22;5081946;28;20028;-64
2021/09/25 00:21:23;;;;;;;24.45;10.38;;;;;;;14.79;100.00;101445.31;5081951;28;20055;-64
2021/09/25 00:23:48;;;;;;;25.80;10.05;;;;;;;14.79;100.00;101450.63;5081698;28;20025;-64
2021/09/25 00:26:13;;;;;;;26.77;10.48;;;;;;;14.74;100.00;101444.47;5084828;28;20025;-64
2021/09/25 00:28:39;;;;;;;24.85;9.93;;;;;;;14.73;100.00;101448.88;5082802;28;20498;-64
2021/09/25 00:31:05;;;;;;;25.10;9.95;;;;;;;14.70;100.00;101456.88;5083126;28;20032;-63
2021/09/25 00:33:30;;;;;;;25.05;10.00;;;;;;;14.70;100.00;101459.53;5084164;28;20028;-64
2021/09/25 00:35:55;;;;;;;25.08;10.55;;;;;;;14.69;100.00;101462.19;5081947;28;20452;-65
2021/09/25 00:38:21;;;;;;;25.52;10.07;;;;;;;14.68;100.00;101461.31;5085189;28;20032;-64
2021/09/25 00:40:46;;;;;;;24.40;9.68;;;;;;;14.66;100.00;101462.22;5081541;28;20028;-65
2021/09/25 00:43:11;;;;;;;23.77;9.75;;;;;;;14.68;100.00;101461.31;5083338;28;20470;-64
2021/09/25 00:45:37;;;;;;;26.38;9.50;;;;;;;14.63;100.00;101460.44;5082971;28;20028;-65
2021/09/25 00:48:02;;;;;;;23.50;9.27;;;;;;;14.60;100.00;101455.97;5082598;28;20028;-64
2021/09/25 00:50:28;;;;;;;23.80;9.27;;;;;;;14.60;100.00;101455.97;5083912;28;20393;-64
2021/09/25 00:52:54;;;;;;;25.60;10.02;;;;;;;14.60;100.00;101455.97;5081408;28;20060;-65
2021/09/25 00:55:21;;;;;;;24.67;9.35;;;;;;;14.61;100.00;101448.88;5084678;28;20024;-64
2021/09/25 00:57:52;;;;;;;26.92;9.63;;;;;;;14.59;100.00;101453.31;5081091;28;20064;-65
2021/09/25 01:00:17;;;;;;;23.98;9.50;;;;;;;14.59;100.00;101458.63;5084696;28;20082;-63
2021/09/25 01:02:42;;;;;;;24.17;9.35;;;;;;;14.61;100.00;101456.88;5081728;28;20509;-64
2021/09/25 01:05:08;;;;;;;24.73;9.82;;;;;;;14.56;100.00;101450.66;5083353;28;20086;-64
2021/09/25 01:07:33;;;;;;;25.45;10.43;;;;;;;14.53;100.00;101454.22;5083507;28;20077;-64
2021/09/25 01:09:59;;;;;;;23.90;9.98;;;;;;;14.52;100.00;101452.47;5081987;28;20028;-65
2021/09/25 01:12:24;;;;;;;23.30;9.00;;;;;;;14.54;100.00;101458.66;5084048;28;20016;-65
2021/09/25 01:14:50;;;;;;;24.02;9.48;;;;;;;14.52;100.00;101460.44;5081198;28;20471;-64
2021/09/25 01:17:15;;;;;;;24.27;9.50;;;;;;;14.51;100.00;101461.31;5083904;28;20060;-64
2021/09/25 01:19:42;;;;;;;25.70;9.65;;;;;;;14.51;100.00;101465.75;5082136;28;20048;-64
2021/09/25 01:22:08;;;;;;;25.30;9.93;;;;;;;14.50;100.00;101467.53;5082915;28;20021;-64
2021/09/25 01:24:34;;;;;;;23.92;9.93;;;;;;;14.52;100.00;101465.75;5082892;28;20081;-64
2021/09/25 01:27:00;;;;;;;24.30;9.38;;;;;;;14.46;100.00;101455.16;5081459;28;20039;-62
2021/09/25 01:29:26;;;;;;;26.52;9.90;;;;;;;14.45;100.00;101462.22;5084077;28;20028;-65
2021/09/25 01:31:52;;;;;;;25.05;9.50;;;;;;;14.43;100.00;101453.38;5081014;28;20085;-64
2021/09/25 01:34:18;;;;;;;22.77;8.90;;;;;;;14.43;100.00;101450.72;5066386;28;20024;-65
2021/09/25 01:36:44;;;;;;;23.73;9.23;;;;;;;14.46;100.00;101453.34;5081706;28;20070;-65
2021/09/25 01:39:09;;;;;;;23.75;9.25;;;;;;;14.40;100.00;101449.81;5082852;28;20029;-64
2021/09/25 01:41:35;;;;;;;23.48;9.30;;;;;;;14.39;100.00;101454.25;5082988;28;20108;-65
2021/09/25 01:44:00;;;;;;;23.75;9.35;;;;;;;14.38;100.00;101462.25;5081483;28;20032;-64
2021/09/25 01:46:25;;;;;;;23.98;9.25;;;;;;;14.37;100.00;101458.69;5083919;28;20024;-64
2021/09/25 01:48:51;;;;;;;25.20;9.20;;;;;;;14.39;100.00;101454.25;5081021;28;20039;-64
2021/09/25 01:51:16;;;;;;;23.73;8.98;;;;;;;14.39;100.00;101456.03;5083673;28;20098;-64
2021/09/25 01:53:41;;;;;;;22.30;8.45;;;;;;;14.39;100.00;101446.28;5082232;28;20047;-64
2021/09/25 01:56:14;;;;;;;24.88;9.43;;;;;;;14.39;100.00;101445.41;5087043;28;20111;-65
2021/09/25 01:58:40;;;;;;;23.98;8.55;;;;;;;14.41;100.00;101451.59;5085729;28;20107;-64
2021/09/25 02:01:08;;;;;;;23.83;8.73;;;;;;;14.41;100.00;101448.94;5086382;28;20029;-64
2021/09/25 02:03:35;;;;;;;23.52;8.68;;;;;;;14.39;100.00;101446.28;5086500;28;20065;-64
2021/09/25 02:06:08;;;;;;;21.95;8.38;;;;;;;14.39;100.00;101445.41;5085074;28;20082;-64
2021/09/25 02:08:34;;;;;;;22.60;8.25;;;;;;;14.38;100.00;101451.59;5086273;28;20032;-66
2021/09/25 02:11:00;;;;;;;23.40;8.85;;;;;;;14.34;100.00;101450.69;5084922;28;20115;-64
2021/09/25 02:13:26;;;;;;;24.58;8.48;;;;;;;14.35;100.00;101452.47;5087857;28;20063;-66
2021/09/25 02:15:52;;;;;;;22.75;8.63;;;;;;;14.33;100.00;101450.72;5084105;28;20154;-66
2021/09/25 02:18:17;;;;;;;22.73;8.32;;;;;;;14.31;100.00;101453.38;5087421;28;20028;-67
2021/09/25 02:20:42;;;;;;;22.52;8.18;;;;;;;14.30;100.00;101460.47;5085201;28;20555;-66
2021/09/25 02:23:08;;;;;;;23.45;8.25;;;;;;;14.33;100.00;101453.38;5086159;28;20048;-67
2021/09/25 02:25:33;;;;;;;22.20;8.50;;;;;;;14.34;100.00;101448.03;5086389;28;20028;-66
2021/09/25 02:27:58;;;;;;;24.58;9.07;;;;;;;14.31;100.00;101448.06;5084366;28;20074;-66
2021/09/25 02:30:24;;;;;;;24.65;8.52;;;;;;;14.30;100.00;101444.53;5087556;28;20379;-67
2021/09/25 02:32:49;;;;;;;22.52;8.30;;;;;;;14.34;100.00;101445.38;5084154;28;20028;-63
2021/09/25 02:35:18;;;;;;;23.77;8.52;;;;;;;14.33;100.00;101442.72;5086734;28;20024;-64
2021/09/25 02:37:43;;;;;;;24.30;8.48;;;;;;;14.35;100.00;101433.88;5084806;28;20410;-67
2021/09/25 02:40:10;;;;;;;23.63;8.80;;;;;;;14.36;100.00;101434.75;5085876;28;20017;-64
2021/09/25 02:42:35;;;;;;;23.63;8.55;;;;;;;14.33;100.00;101434.75;5085532;28;20031;-66
2021/09/25 02:45:01;;;;;;;24.55;8.30;;;;;;;14.33;100.00;101437.41;5084879;28;20379;-66
2021/09/25 02:47:26;;;;;;;22.05;8.27;;;;;;;14.31;100.00;101442.72;5086791;28;20478;-66
2021/09/25 02:49:52;;;;;;;23.50;8.48;;;;;;;14.33;100.00;101440.97;5083840;28;20033;-66
2021/09/25 02:52:17;;;;;;;24.33;8.32;;;;;;;14.33;100.00;101448.97;5086955;28;20032;-62
2021/09/25 02:54:42;;;;;;;22.30;8.10;;;;;;;14.30;100.00;101441.84;5084531;28;20386;-63
2021/09/25 02:57:08;;;;;;;23.27;8.13;;;;;;;14.31;100.00;101448.06;5085283;28;20498;-62
2021/09/25 02:59:34;;;;;;;23.65;8.70;;;;;;;14.30;100.00;101452.50;5085493;28;20534;-64
2021/09/25 03:02:00;;;;;;;23.58;8.40;;;;;;;14.30;100.00;101449.84;5084486;28;20039;-64
2021/09/25 03:04:25;;;;;;;23.15;8.40;;;;;;;14.30;100.00;101454.28;5086104;28;20053;-63
2021/09/25 03:06:51;;;;;;;24.30;8.80;;;;;;;14.26;100.00;101445.41;5083358;28;20024;-62
2021/09/25 03:09:16;;;;;;;26.90;8.60;;;;;;;14.28;100.00;101446.31;5086412;28;20021;-62
2021/09/25 03:11:41;;;;;;;23.15;8.30;;;;;;;14.25;100.00;101442.75;5084171;28;20478;-62
2021/09/25 03:14:07;;;;;;;23.50;8.63;;;;;;;14.23;100.00;101447.19;5084832;28;20093;-61
2021/09/25 03:16:32;;;;;;;25.38;9.07;;;;;;;14.23;100.00;101445.41;5085382;28;20107;-62
2021/09/25 03:18:58;;;;;;;22.35;8.57;;;;;;;14.21;100.00;101444.53;5083302;28;20028;-62
2021/09/25 03:21:24;;;;;;;23.83;9.13;;;;;;;14.23;100.00;101441.88;5086904;28;20031;-62
2021/09/25 03:23:50;;;;;;;23.77;8.65;;;;;;;14.21;100.00;101441.88;5082889;28;20032;-63
2021/09/25 03:26:15;;;;;;;22.80;8.57;;;;;;;14.23;100.00;101440.09;5085900;28;20052;-62
2021/09/25 03:28:41;;;;;;;25.40;9.23;;;;;;;14.21;100.00;101454.28;5084487;28;20077;-62
2021/09/25 03:31:06;;;;;;;22.83;8.20;;;;;;;14.21;100.00;101456.94;5084431;28;20522;-62
2021/09/25 03:33:31;;;;;;;22.30;8.90;;;;;;;14.19;100.00;101446.28;5085241;28;20032;-63
2021/09/25 03:35:57;;;;;;;23.98;8.65;;;;;;;14.20;100.00;101452.50;5083376;28;20021;-67
2021/09/25 03:38:24;;;;;;;23.67;9.02;;;;;;;14.23;100.00;101448.06;5085954;28;20027;-67
2021/09/25 03:40:50;;;;;;;22.65;8.40;;;;;;;14.19;100.00;101448.97;5082855;28;20029;-66
2021/09/25 03:43:17;;;;;;;24.90;9.63;;;;;;;14.18;100.00;101447.19;5085574;28;20020;-67
2021/09/25 03:45:43;;;;;;;23.77;8.68;;;;;;;14.20;100.00;101449.84;5083560;28;20038;-67
2021/09/25 03:48:08;;;;;;;22.98;8.50;;;;;;;14.21;100.00;101443.63;5084401;28;20543;-68
2021/09/25 03:50:34;;;;;;;22.90;8.52;;;;;;;14.21;100.00;101444.53;5084601;28;20035;-68
2021/09/25 03:53:00;;;;;;;23.45;9.07;;;;;;;14.18;100.00;101439.19;5083281;28;20123;-67
2021/09/25 03:55:26;;;;;;;24.45;9.40;;;;;;;14.18;100.00;101438.31;5085929;28;20125;-67
2021/09/25 03:57:53;;;;;;;24.08;9.27;;;;;;;14.17;100.00;101431.22;5082407;28;20123;-68
2021/09/25 04:00:19;;;;;;;24.33;9.50;;;;;;;14.18;100.00;101438.31;5085343;28;20024;-68
2021/09/25 04:02:44;;;;;;;23.52;8.88;;;;;;;14.16;100.00;101433.00;5082788;28;20109;-67
2021/09/25 04:05:10;;;;;;;23.63;9.38;;;;;;;14.17;100.00;101428.56;5084338;28;20036;-67
2021/09/25 04:07:35;;;;;;;23.23;9.68;;;;;;;14.16;100.00;101433.00;5084009;28;20056;-67
2021/09/25 04:10:01;;;;;;;25.52;10.05;;;;;;;14.18;100.00;101439.19;5082945;28;20047;-68
2021/09/25 04:12:26;;;;;;;25.20;10.35;;;;;;;14.20;100.00;101433.88;5085564;28;20375;-68
2021/09/25 04:14:52;;;;;;;25.88;10.18;;;;;;;14.18;100.00;101438.31;5081822;28;20040;-67
2021/09/25 04:17:17;;;;;;;25.13;9.95;;;;;;;14.19;100.00;101438.31;5084093;28;20032;-67
2021/09/25 04:19:42;;;;;;;24.00;9.75;;;;;;;14.17;100.00;101434.78;5083088;28;20456;-67
2021/09/25 04:22:08;;;;;;;26.45;10.75;;;;;;;14.14;100.00;101432.16;5083357;28;20024;-67
2021/09/25 04:24:33;;;;;;;26.30;10.07;;;;;;;14.13;100.00;101439.22;5084558;28;20341;-67
2021/09/25 04:26:58;;;;;;;23.77;9.98;;;;;;;14.12;100.00;101436.56;5081958;28;20540;-67
2021/09/25 04:29:24;;;;;;;24.45;9.63;;;;;;;14.11;100.00;101437.44;5085641;28;20024;-67
2021/09/25 04:31:49;;;;;;;25.63;10.23;;;;;;;14.11;100.00;101435.69;5081732;28;20028;-67
2021/09/25 04:34:15;;;;;;;24.92;10.68;;;;;;;14.11;100.00;101448.06;5084376;28;20027;-67
2021/09/25 04:36:41;;;;;;;23.67;9.60;;;;;;;14.10;100.00;101441.00;5083215;28;20053;-67
2021/09/25 04:39:07;;;;;;;25.52;9.80;;;;;;;14.11;100.00;101438.34;5083107;28;20456;-66
2021/09/25 04:41:32;;;;;;;25.17;10.05;;;;;;;14.10;100.00;101436.56;5083826;28;20028;-67
2021/09/25 04:43:58;;;;;;;26.45;10.85;;;;;;;14.08;100.00;101433.03;5081843;28;20028;-67
2021/09/25 04:46:24;;;;;;;24.50;10.18;;;;;;;14.07;100.00;101435.69;5085097;28;20034;-67
2021/09/25 04:48:49;;;;;;;26.60;10.25;;;;;;;14.08;100.00;101432.13;5081620;28;20378;-67
2021/09/25 04:51:16;;;;;;;24.60;10.48;;;;;;;14.06;100.00;101428.59;5084155;28;20039;-67
2021/09/25 04:53:42;;;;;;;26.52;10.63;;;;;;;14.08;100.00;101429.47;5082483;28;20528;-67
2021/09/25 04:56:07;;;;;;;25.65;10.65;;;;;;;14.09;100.00;101431.25;5083143;28;20017;-67
2021/09/25 04:58:33;;;;;;;25.38;10.38;;;;;;;14.05;100.00;101426.81;5083556;28;20035;-67
2021/09/25 05:00:58;;;;;;;27.67;11.07;;;;;;;14.05;100.00;101424.16;5081438;28;20074;-67
2021/09/25 05:03:24;;;;;;;26.88;11.18;;;;;;;14.06;100.00;101432.13;5084216;28;20040;-66
2021/09/25 05:05:51;;;;;;;28.33;11.38;;;;;;;14.07;100.00;101430.38;5081629;28;20039;-67
2021/09/25 05:08:16;;;;;;;25.50;10.95;;;;;;;14.05;100.00;101424.16;5083914;28;20035;-67
2021/09/25 05:10:41;;;;;;;25.58;10.73;;;;;;;14.02;100.00;101424.16;5082342;28;20020;-68
2021/09/25 05:13:07;;;;;;;26.45;10.85;;;;;;;14.03;100.00;101428.59;5082986;28;20380;-68
2021/09/25 05:15:32;;;;;;;28.55;11.35;;;;;;;14.03;100.00;101434.78;5083520;28;20506;-68
2021/09/25 05:17:57;;;;;;;25.65;11.30;;;;;;;14.04;100.00;101431.25;5081067;28;20028;-67
2021/09/25 05:20:23;;;;;;;25.88;11.27;;;;;;;14.02;100.00;101433.00;5084244;28;20032;-68
2021/09/25 05:22:49;;;;;;;27.20;11.80;;;;;;;14.00;100.00;101432.13;5081405;28;20016;-68
2021/09/25 05:25:14;;;;;;;27.92;11.55;;;;;;;14.02;100.00;101430.34;5083777;28;20024;-68
2021/09/25 05:27:40;;;;;;;28.13;11.75;;;;;;;14.03;100.00;101439.22;5082244;28;20417;-68
2021/09/25 05:30:07;;;;;;;27.33;11.75;;;;;;;14.05;100.00;101438.34;5082340;28;20082;-67
2021/09/25 05:32:32;;;;;;;28.90;12.38;;;;;;;14.04;100.00;101435.69;5083579;28;20059;-67
2021/09/25 05:34:58;;;;;;;28.20;12.45;;;;;;;14.04;100.00;101447.22;5081045;28;20502;-67
2021/09/25 05:37:23;;;;;;;28.55;12.98;;;;;;;14.02;100.00;101448.97;5084067;28;20106;-68
2021/09/25 05:39:54;;;;;;;27.83;12.05;;;;;;;14.04;100.00;101435.69;5081530;28;20036;-67
2021/09/25 05:42:20;;;;;;;28.65;12.98;;;;;;;14.05;100.00;101445.41;5083864;28;20024;-68
2021/09/25 05:44:45;;;;;;;29.23;13.52;;;;;;;14.05;100.00;101437.44;5081541;28;20031;-68
2021/09/25 05:47:12;;;;;;;29.25;13.68;;;;;;;14.05;100.00;101446.31;5083035;28;20375;-68
2021/09/25 05:49:37;;;;;;;29.58;13.68;;;;;;;14.05;100.00;101443.66;5082251;28;20544;-68
2021/09/25 05:52:04;;;;;;;30.83;14.00;;;;;;;14.08;100.00;101443.66;5081601;28;20024;-68
2021/09/25 05:54:30;;;;;;;30.48;14.38;;;;;;;14.07;100.00;101448.97;5083858;28;20090;-68
2021/09/25 05:56:55;;;;;;;30.45;14.27;;;;;;;14.10;100.00;101446.31;5080442;28;20456;-68
2021/09/25 05:59:20;;;;;;;30.55;15.02;;;;;;;14.10;100.00;101446.31;5083756;28;20032;-66
2021/09/25 06:01:46;;;;;;;33.25;16.05;;;;;;;14.13;100.00;101443.66;5081330;28;20060;-67
2021/09/25 06:04:11;;;;;;;33.10;16.25;;;;;;;14.12;100.00;101444.53;5082257;28;20068;-67
2021/09/25 06:06:36;;;;;;;33.60;16.48;;;;;;;14.13;100.00;101441.88;5082484;28;20036;-66
2021/09/25 06:09:02;;;;;;;31.23;15.45;;;;;;;14.13;100.00;101444.53;5081369;28;20025;-67
2021/09/25 06:11:27;;;;;;;32.78;15.88;;;;;;;14.17;100.00;101448.09;5083784;28;20028;-65
2021/09/25 06:13:52;;;;;;;33.50;16.35;;;;;;;14.21;100.00;101449.88;5080360;28;20371;-67
2021/09/25 06:16:18;;;;;;;33.80;16.20;;;;;;;14.20;100.00;101448.09;5083380;28;20062;-67
2021/09/25 06:18:43;;;;;;;32.83;16.23;;;;;;;14.21;100.00;101455.19;5081599;28;20025;-67
2021/09/25 06:21:08;;;;;;;33.67;16.90;;;;;;;14.24;100.00;101447.19;5082288;28;20028;-66
2021/09/25 06:23:34;;;;;;;35.15;17.45;;;;;;;14.25;100.00;101458.69;5082991;28;20020;-67
2021/09/25 06:25:59;;;;;;;34.15;16.15;;;;;;;14.30;100.00;101456.94;5080186;28;20086;-67
2021/09/25 06:28:24;;;;;;;35.17;17.23;;;;;;;14.30;100.00;101455.16;5083809;28;20552;-67
2021/09/25 06:30:50;;;;;;;33.90;17.15;;;;;;;14.33;100.00;101461.34;5062173;28;20128;-67
2021/09/25 06:33:15;;;;;;;33.97;17.17;;;;;;;14.30;100.00;101465.78;5082625;28;20107;-67
2021/09/25 06:35:40;;;;;;;36.65;17.30;;;;;;;14.32;100.00;101464.91;5082112;28;20102;-67
2021/09/25 06:38:06;;;;;;;33.88;16.58;;;;;;;14.35;100.00;101468.44;5081224;28;20037;-67
2021/09/25 06:40:31;;;;;;;34.78;17.40;;;;;;;14.37;100.00;101460.47;5084914;28;20027;-67
2021/09/25 06:42:57;;;;;;;34.78;17.17;;;;;;;14.41;100.00;101467.56;5084236;28;20029;-65
2021/09/25 06:45:22;;;;;;;33.92;16.80;;;;;;;14.43;100.00;101465.75;5083783;28;20535;-66
2021/09/25 06:47:47;;;;;;;35.05;17.15;;;;;;;14.47;100.00;101464.88;5087018;28;20527;-68
2021/09/25 06:50:13;;;;;;;35.53;16.98;;;;;;;14.50;100.00;101462.19;5084676;28;20052;-68
2021/09/25 06:52:38;;;;;;;36.92;18.02;;;;;;;14.51;100.00;101463.97;5085113;28;20111;-68
2021/09/25 06:55:05;;;;;;;34.03;17.10;;;;;;;14.57;100.00;101458.63;5086414;28;20055;-67
2021/09/25 06:57:30;;;;;;;35.83;17.33;;;;;;;14.60;100.00;101463.94;5083696;28;20028;-68
2021/09/25 06:59:56;;;;;;;36.15;17.55;;;;;;;14.64;100.00;101465.75;5086877;28;20062;-68
2021/09/25 07:02:22;;;;;;;32.22;17.25;;;;;;;14.69;100.00;101468.38;5083176;28;20058;-67
2021/09/25 07:04:47;;;;;;;35.35;17.80;;;;;;;14.71;100.00;101460.41;5086236;28;20102;-68
2021/09/25 07:07:12;;;;;;;33.90;16.98;;;;;;;14.81;100.00;101472.81;5084184;28;20036;-67
2021/09/25 07:09:41;;;;;;;33.40;16.55;;;;;;;14.92;100.00;101467.44;5084729;28;20460;-68
2021/09/25 07:12:08;;;;;;;34.70;17.52;;;;;;;14.95;100.00;101476.28;5085027;28;20060;-67
2021/09/25 07:14:33;;;;;;;33.45;17.60;;;;;;;14.99;100.00;101479.84;5083987;28;20119;-67
2021/09/25 07:16:58;;;;;;;35.40;17.85;;;;;;;14.99;100.00;101487.84;5086419;28;20431;-67
2021/09/25 07:19:24;;;;;;;34.65;17.75;;;;;;;15.08;100.00;101481.59;5083008;28;20025;-66
2021/09/25 07:21:49;;;;;;;36.05;18.08;;;;;;;15.13;100.00;101487.75;5085822;28;20484;-66
2021/09/25 07:24:14;;;;;;;33.58;17.30;;;;;;;15.16;100.00;101487.78;5084088;28;20039;-66
2021/09/25 07:26:40;;;;;;;34.85;17.38;;;;;;;15.17;100.00;101486.84;5084469;28;20028;-66
2021/09/25 07:29:06;;;;;;;34.40;18.55;;;;;;;15.16;100.00;101474.47;5085257;28;20072;-63
2021/09/25 07:31:31;;;;;;;34.00;17.60;;;;;;;15.13;100.00;101486.00;5083379;28;20020;-64
2021/09/25 07:33:56;;;;;;;36.28;17.92;;;;;;;15.18;100.00;101480.66;5086182;28;20024;-64
2021/09/25 07:36:24;;;;;;;34.53;17.75;;;;;;;15.23;100.00;101492.19;5082779;28;20535;-64
2021/09/25 07:38:50;;;;;;;36.80;18.27;;;;;;;15.24;100.00;101487.72;5085891;28;20036;-64
2021/09/25 07:41:15;;;;;;;36.08;18.50;;;;;;;15.30;100.00;101493.91;5083700;28;20149;-64
2021/09/25 07:43:40;;;;;;;35.40;18.38;;;;;;;15.41;100.00;101498.31;5084621;28;20029;-64
2021/09/25 07:46:06;;;;;;;36.72;18.20;;;;;;;15.46;100.00;101493.81;5066805;28;20448;-61
2021/09/25 07:48:31;;;;;;;35.63;18.20;;;;;;;15.48;100.00;101510.69;5082886;28;20021;-64
2021/09/25 07:50:56;;;;;;;36.22;19.48;;;;;;;15.45;99.80;101500.03;5085502;28;20460;-63
2021/09/25 07:53:22;;;;;;;36.85;19.35;;;;;;;15.45;100.00;101511.59;5082024;28;20491;-64
2021/09/25 07:55:47;;;;;;;36.65;18.85;;;;;;;15.51;100.00;101508.88;5084858;28;20494;-64
2021/09/25 07:58:13;;;;;;;37.13;19.05;;;;;;;15.59;99.79;101508.84;5083854;28;20032;-63
2021/09/25 08:00:39;;;;;;;36.72;19.33;;;;;;;15.68;98.95;101514.13;5083486;28;20424;-64
2021/09/25 08:03:04;;;;;;;34.97;17.70;;;;;;;15.71;98.25;101515.00;5084584;28;20048;-64
2021/09/25 08:05:30;;;;;;;36.65;18.52;;;;;;;15.79;99.07;101513.22;5082596;28;20387;-64
2021/09/25 08:07:55;;;;;;;35.38;19.00;;;;;;;15.91;98.00;101514.91;5085500;28;20477;-64
2021/09/25 08:10:20;;;;;;;35.83;18.85;;;;;;;15.95;96.24;101517.53;5082255;28;20415;-64
2021/09/25 08:12:46;;;;;;;36.75;18.33;;;;;;;16.04;94.83;101529.91;5084542;28;20024;-64
2021/09/25 08:15:14;;;;;;;34.33;18.65;;;;;;;15.99;93.77;101521.06;5083683;28;20024;-64
2021/09/25 08:17:40;;;;;;;36.72;19.10;;;;;;;15.98;94.91;101517.50;5083582;28;20028;-63
2021/09/25 08:20:07;;;;;;;35.28;18.83;;;;;;;16.03;93.79;101523.69;5084581;28;20024;-64
2021/09/25 08:22:34;;;;;;;35.08;18.55;;;;;;;16.15;95.31;101533.38;5082388;28;20467;-64
2021/09/25 08:24:59;;;;;;;37.33;19.75;;;;;;;16.22;93.63;101528.88;5085089;28;20078;-64
2021/09/25 08:27:25;;;;;;;34.95;18.40;;;;;;;16.36;93.90;101528.75;5081764;28;20025;-64
2021/09/25 08:29:50;;;;;;;36.58;18.85;;;;;;;16.46;91.50;101534.91;5084809;28;20100;-64
2021/09/25 08:32:15;;;;;;;38.63;19.02;;;;;;;16.47;90.34;101529.56;5082947;28;20459;-64
2021/09/25 08:34:41;;;;;;;35.88;18.98;;;;;;;16.45;90.77;101536.66;5083328;28;20111;-64
2021/09/25 08:37:06;;;;;;;37.20;18.70;;;;;;;16.50;90.26;101536.66;5083679;28;20027;-64
2021/09/25 08:39:33;;;;;;;35.67;19.42;;;;;;;16.47;91.05;101544.66;5082130;28;20032;-64
2021/09/25 08:41:59;;;;;;;36.92;18.90;;;;;;;16.54;90.13;101547.28;5084752;28;20054;-64
2021/09/25 08:44:25;;;;;;;35.20;18.52;;;;;;;16.59;90.48;101544.56;5081622;28;20452;-65
2021/09/25 08:46:52;;;;;;;34.83;18.38;;;;;;;16.64;88.91;101547.19;5084542;28;20028;-64
2021/09/25 08:49:17;;;;;;;34.58;17.92;;;;;;;16.70;87.90;101553.34;5082098;28;20024;-64
2021/09/25 08:51:43;;;;;;;34.63;17.42;;;;;;;16.79;87.81;101560.38;5083213;28;20016;-64
2021/09/25 08:54:08;;;;;;;34.53;16.90;;;;;;;16.89;88.00;101554.09;5083534;28;20048;-64
2021/09/25 08:56:34;;;;;;;34.95;17.60;;;;;;;17.01;87.60;101555.72;5081663;28;20019;-64
2021/09/25 08:58:59;;;;;;;34.72;17.98;;;;;;;17.03;86.00;101561.94;5084335;28;20051;-64
2021/09/25 09:01:30;;;;;;;34.50;18.92;;;;;;;16.94;86.79;101567.38;5081284;28;20039;-64
2021/09/25 09:03:56;;;;;;;36.08;18.33;;;;;;;16.97;87.27;101561.13;5080543;28;20123;-63
2021/09/25 09:06:32;;;;;;;34.00;18.10;;;;;;;17.11;86.96;101563.63;5084458;28;20048;-65
2021/09/25 09:09:04;;;;;;;37.42;18.67;;;;;;;17.18;85.70;101565.31;5081068;28;20024;-64
2021/09/25 09:11:30;;;;;;;34.90;18.90;;;;;;;17.12;85.40;101571.63;5081571;28;20020;-65
2021/09/25 09:13:59;;;;;;;34.58;17.67;;;;;;;17.16;84.59;101580.50;5084415;28;20030;-64
2021/09/25 09:16:25;;;;;;;37.88;18.83;;;;;;;17.19;83.76;101572.44;5081023;28;20529;-64
2021/09/25 09:18:51;;;;;;;35.17;18.35;;;;;;;17.24;83.28;101576.84;5083941;28;20032;-64
2021/09/25 09:21:18;;;;;;;33.33;18.58;;;;;;;17.26;83.54;101576.81;5081755;28;20463;-64
2021/09/25 09:23:52;;;;;;;35.33;18.85;;;;;;;17.24;83.82;101576.84;5082673;28;20031;-64
2021/09/25 09:26:23;;;;;;;35.20;18.27;;;;;;;17.33;83.91;101582.94;5081980;28;20032;-64
2021/09/25 09:28:50;;;;;;;33.95;17.98;;;;;;;17.36;82.70;101586.50;5083360;28;20468;-64
2021/09/25 09:31:17;;;;;;;36.20;17.85;;;;;;;17.42;84.36;101585.53;5081827;28;20036;-65
2021/09/25 09:33:52;;;;;;;34.75;17.95;;;;;;;17.61;83.25;101578.16;5082885;28;20499;-68
2021/09/25 09:36:35;;;;;;;32.63;16.92;;;;;;;17.79;83.09;101577.00;5081925;28;20027;-68
2021/09/25 09:39:10;;;;;;;32.28;16.40;;;;;;;18.00;81.27;101578.53;5081165;28;20021;-68
2021/09/25 09:41:47;;;;;;;33.88;16.83;;;;;;;18.15;80.41;101577.41;5083221;28;20062;-68
2021/09/25 09:44:17;;;;;;;33.55;17.58;;;;;;;18.23;78.15;101569.25;5082439;28;20079;-67
2021/09/25 09:46:47;;;;;;;33.53;16.85;;;;;;;18.31;77.75;101570.03;5082105;28;20494;-67
2021/09/25 09:49:18;;;;;;;33.47;16.63;;;;;;;18.39;77.58;101569.91;5082546;28;20029;-68
2021/09/25 09:51:46;;;;;;;32.97;17.50;;;;;;;18.31;77.79;101571.84;5082028;28;20106;-68
2021/09/25 09:54:13;;;;;;;34.78;17.80;;;;;;;18.31;77.61;101570.03;5082445;28;20451;-68
2021/09/25 09:56:41;;;;;;;32.33;16.67;;;;;;;18.41;77.72;101573.44;5082734;28;20395;-68
2021/09/25 09:59:08;;;;;;;33.40;16.30;;;;;;;18.65;76.95;101569.44;5081804;28;20083;-66
2021/09/25 10:01:33;;;;;;;31.77;15.88;;;;;;;18.60;77.64;101569.53;5083315;28;20024;-68
2021/09/25 10:03:59;;;;;;;30.17;15.77;;;;;;;18.61;74.28;101565.03;5080479;28;20123;-63
2021/09/25 10:06:24;;;;;;;30.77;15.98;;;;;;;18.63;74.75;101561.44;5080863;28;20021;-68
2021/09/25 10:08:50;;;;;;;32.35;16.27;;;;;;;18.54;74.75;101571.44;5083506;28;20389;-64
2021/09/25 10:11:16;;;;;;;32.30;16.13;;;;;;;18.70;74.16;101566.69;5081802;28;20017;-64
2021/09/25 10:13:41;;;;;;;31.45;15.95;;;;;;;18.68;73.82;101561.34;5081850;28;20025;-65
2021/09/25 10:16:11;;;;;;;30.40;14.93;;;;;;;18.94;73.00;101563.56;5085639;28;20077;-65
2021/09/25 10:18:38;;;;;;;32.72;15.20;;;;;;;19.10;72.81;101569.53;5085227;28;20115;-64
2021/09/25 10:21:06;;;;;;;29.85;14.38;;;;;;;19.31;73.04;101567.34;5086951;28;20024;-64
2021/09/25 10:23:35;;;;;;;32.80;15.85;;;;;;;19.45;70.65;101559.00;5084406;28;20040;-64
2021/09/25 10:26:01;;;;;;;31.42;14.57;;;;;;;19.39;71.07;101562.69;5087302;28;20085;-65
2021/09/25 10:28:28;;;;;;;30.10;15.15;;;;;;;19.29;70.93;101572.72;5084199;28;20029;-64
2021/09/25 10:30:55;;;;;;;30.88;14.55;;;;;;;19.22;70.92;101559.47;5087163;28;20553;-65
2021/09/25 10:33:22;;;;;;;31.98;15.70;;;;;;;19.13;71.29;101556.09;5084240;28;20488;-64
2021/09/25 10:35:49;;;;;;;29.20;14.75;;;;;;;19.43;70.50;101553.69;5068596;28;20027;-64
2021/09/25 10:38:34;;;;;;;28.15;13.93;;;;;;;19.62;70.15;101554.16;5085164;28;21019;-65
2021/09/25 10:41:14;;;;;;;30.15;14.48;;;;;;;19.64;69.92;101554.13;5083833;28;20047;-64
2021/09/25 10:43:45;;;;;;;29.60;13.75;;;;;;;19.67;69.48;101556.72;5084950;28;20033;-65
2021/09/25 10:46:12;;;;;;;27.67;14.10;;;;;;;19.72;69.26;101556.63;5085876;28;20027;-65
2021/09/25 10:48:46;;;;;;;28.10;13.43;;;;;;;19.78;69.01;101552.03;5084938;28;20091;-64
2021/09/25 10:51:15;;;;;;;27.83;13.35;;;;;;;19.83;68.89;101555.50;5085302;28;20028;-64
2021/09/25 10:53:44;;;;;;;27.88;13.20;;;;;;;20.17;68.17;101554.69;5084918;28;20028;-64
2021/09/25 10:56:26;;;;;;;28.40;13.52;;;;;;;20.45;68.79;101555.81;5085790;28;20547;-64
2021/09/25 10:58:53;;;;;;;;;;;;;;;20.73;66.16;101550.63;5086763;28;20110;-64
2021/09/25 11:01:19;;;;;;;28.13;12.93;;;;;;;20.92;64.76;101550.13;5084484;28;19912;-65
2021/09/25 11:03:52;;;;;;;27.48;13.60;;;;;;;21.31;64.32;101541.84;5085161;28;20098;-66